sensor_id;sensor_type;location;lat;lon;timestamp;P1;durP1;ratioP1;P2;durP2;ratioP2
34902;SDS011;21114;44.840;0.214;2022-11-15T00:02:03;5.25;;;3.67;;
34902;SDS011;21114;44.840;0.214;2022-11-15T00:04:29;6.03;;;3.90;;
34902;SDS011;21114;44.840;0.214;2022-11-15T00:06:56;9.35;;;4.70;;
34902;SDS011;21114;44.840;0.214;2022-11-15T00:09:22;7.10;;;3.40;;
34902;SDS011;21114;44.840;0.214;2022-11-15T00:11:48;4.93;;;3.95;;
34902;SDS011;21114;44.840;0.214;2022-11-15T00:14:14;5.00;;;3.22;;
34902;SDS011;21114;44.840;0.214;2022-11-15T00:16:40;8.10;;;5.15;;
34902;SDS011;21114;44.840;0.214;2022-11-15T00:19:06;9.93;;;4.88;;
34902;SDS011;21114;44.840;0.214;2022-11-15T00:21:32;5.93;;;4.43;;
34902;SDS011;21114;44.840;0.214;2022-11-15T00:23:58;8.77;;;5.40;;
34902;SDS011;21114;44.840;0.214;2022-11-15T00:26:24;8.23;;;5.35;;
34902;SDS011;21114;44.840;0.214;2022-11-15T00:28:51;9.93;;;4.90;;
34902;SDS011;21114;44.840;0.214;2022-11-15T00:31:49;5.90;;;4.32;;
34902;SDS011;21114;44.840;0.214;2022-11-15T00:34:15;6.32;;;5.00;;
34902;SDS011;21114;44.840;0.214;2022-11-15T00:36:41;7.80;;;4.95;;
34902;SDS011;21114;44.840;0.214;2022-11-15T00:39:08;6.82;;;4.68;;
34902;SDS011;21114;44.840;0.214;2022-11-15T00:41:53;64.40;;;7.63;;
34902;SDS011;21114;44.840;0.214;2022-11-15T00:44:19;11.05;;;6.72;;
34902;SDS011;21114;44.840;0.214;2022-11-15T00:46:46;8.77;;;5.50;;
34902;SDS011;21114;44.840;0.214;2022-11-15T00:49:12;6.72;;;4.75;;
34902;SDS011;21114;44.840;0.214;2022-11-15T00:51:39;7.63;;;5.32;;
34902;SDS011;21114;44.840;0.214;2022-11-15T00:54:05;6.97;;;5.13;;
34902;SDS011;21114;44.840;0.214;2022-11-15T00:56:31;9.48;;;5.72;;
34902;SDS011;21114;44.840;0.214;2022-11-15T00:58:57;5.07;;;4.50;;
34902;SDS011;21114;44.840;0.214;2022-11-15T01:01:23;7.20;;;4.60;;
34902;SDS011;21114;44.840;0.214;2022-11-15T01:03:49;9.18;;;5.22;;
34902;SDS011;21114;44.840;0.214;2022-11-15T01:06:15;7.65;;;4.88;;
34902;SDS011;21114;44.840;0.214;2022-11-15T01:08:41;7.85;;;5.32;;
34902;SDS011;21114;44.840;0.214;2022-11-15T01:11:08;7.75;;;5.03;;
34902;SDS011;21114;44.840;0.214;2022-11-15T01:14:23;9.32;;;4.82;;
34902;SDS011;21114;44.840;0.214;2022-11-15T01:16:49;7.13;;;4.75;;
34902;SDS011;21114;44.840;0.214;2022-11-15T01:19:15;10.15;;;5.82;;
34902;SDS011;21114;44.840;0.214;2022-11-15T01:21:41;9.90;;;5.65;;
34902;SDS011;21114;44.840;0.214;2022-11-15T01:24:07;8.13;;;4.85;;
34902;SDS011;21114;44.840;0.214;2022-11-15T01:27:25;10.00;;;6.57;;
34902;SDS011;21114;44.840;0.214;2022-11-15T01:29:52;9.70;;;5.70;;
34902;SDS011;21114;44.840;0.214;2022-11-15T01:32:18;13.38;;;4.57;;
34902;SDS011;21114;44.840;0.214;2022-11-15T01:34:44;5.72;;;4.38;;
34902;SDS011;21114;44.840;0.214;2022-11-15T01:37:10;6.95;;;5.30;;
34902;SDS011;21114;44.840;0.214;2022-11-15T01:39:36;10.63;;;5.25;;
34902;SDS011;21114;44.840;0.214;2022-11-15T01:42:02;10.75;;;5.40;;
34902;SDS011;21114;44.840;0.214;2022-11-15T01:47:08;8.13;;;5.70;;
34902;SDS011;21114;44.840;0.214;2022-11-15T01:50:27;6.03;;;4.53;;
34902;SDS011;21114;44.840;0.214;2022-11-15T01:53:44;11.48;;;6.47;;
34902;SDS011;21114;44.840;0.214;2022-11-15T01:57:01;6.97;;;4.90;;
34902;SDS011;21114;44.840;0.214;2022-11-15T02:00:17;6.53;;;4.63;;
34902;SDS011;21114;44.840;0.214;2022-11-15T02:02:43;7.10;;;5.20;;
34902;SDS011;21114;44.840;0.214;2022-11-15T02:05:09;7.97;;;4.88;;
34902;SDS011;21114;44.840;0.214;2022-11-15T02:07:36;10.93;;;7.88;;
34902;SDS011;21114;44.840;0.214;2022-11-15T02:10:51;6.63;;;4.70;;
34902;SDS011;21114;44.840;0.214;2022-11-15T02:13:17;8.00;;;5.57;;
34902;SDS011;21114;44.840;0.214;2022-11-15T02:15:46;8.25;;;5.88;;
34902;SDS011;21114;44.840;0.214;2022-11-15T02:25:09;5.95;;;5.35;;
34902;SDS011;21114;44.840;0.214;2022-11-15T02:31:27;9.77;;;5.95;;
34902;SDS011;21114;44.840;0.214;2022-11-15T02:37:37;6.57;;;4.80;;
34902;SDS011;21114;44.840;0.214;2022-11-15T02:40:53;7.60;;;5.65;;
34902;SDS011;21114;44.840;0.214;2022-11-15T02:44:14;6.43;;;5.72;;
34902;SDS011;21114;44.840;0.214;2022-11-15T02:47:30;8.20;;;5.20;;
34902;SDS011;21114;44.840;0.214;2022-11-15T02:50:47;4.35;;;3.80;;
34902;SDS011;21114;44.840;0.214;2022-11-15T02:53:54;13.55;;;5.93;;
34902;SDS011;21114;44.840;0.214;2022-11-15T02:56:20;5.32;;;4.65;;
34902;SDS011;21114;44.840;0.214;2022-11-15T03:01:29;5.80;;;4.18;;
34902;SDS011;21114;44.840;0.214;2022-11-15T03:05:02;5.95;;;3.17;;
34902;SDS011;21114;44.840;0.214;2022-11-15T03:08:01;3.50;;;3.03;;
34902;SDS011;21114;44.840;0.214;2022-11-15T03:11:17;4.60;;;3.40;;
34902;SDS011;21114;44.840;0.214;2022-11-15T03:14:34;4.60;;;4.05;;
34902;SDS011;21114;44.840;0.214;2022-11-15T03:17:53;4.32;;;3.38;;
34902;SDS011;21114;44.840;0.214;2022-11-15T03:21:10;2.95;;;2.63;;
34902;SDS011;21114;44.840;0.214;2022-11-15T03:24:26;2.80;;;2.60;;
34902;SDS011;21114;44.840;0.214;2022-11-15T03:27:41;3.22;;;2.83;;
34902;SDS011;21114;44.840;0.214;2022-11-15T03:30:57;5.35;;;3.10;;
34902;SDS011;21114;44.840;0.214;2022-11-15T03:34:15;10.90;;;5.10;;
34902;SDS011;21114;44.840;0.214;2022-11-15T03:37:41;5.97;;;3.10;;
34902;SDS011;21114;44.840;0.214;2022-11-15T03:40:59;3.70;;;3.10;;
34902;SDS011;21114;44.840;0.214;2022-11-15T03:49:38;4.35;;;2.88;;
34902;SDS011;21114;44.840;0.214;2022-11-15T03:52:55;3.45;;;2.70;;
34902;SDS011;21114;44.840;0.214;2022-11-15T03:55:21;6.55;;;3.13;;
34902;SDS011;21114;44.840;0.214;2022-11-15T03:57:48;4.30;;;3.20;;
34902;SDS011;21114;44.840;0.214;2022-11-15T04:01:03;2.92;;;2.67;;
34902;SDS011;21114;44.840;0.214;2022-11-15T04:03:30;4.22;;;3.13;;
34902;SDS011;21114;44.840;0.214;2022-11-15T04:05:56;3.67;;;2.67;;
34902;SDS011;21114;44.840;0.214;2022-11-15T04:08:22;4.32;;;3.00;;
34902;SDS011;21114;44.840;0.214;2022-11-15T04:10:48;5.40;;;3.15;;
34902;SDS011;21114;44.840;0.214;2022-11-15T04:13:14;6.13;;;2.78;;
34902;SDS011;21114;44.840;0.214;2022-11-15T04:15:40;4.40;;;2.83;;
34902;SDS011;21114;44.840;0.214;2022-11-15T04:18:06;6.57;;;4.07;;
34902;SDS011;21114;44.840;0.214;2022-11-15T04:20:32;4.30;;;2.88;;
34902;SDS011;21114;44.840;0.214;2022-11-15T04:23:27;5.43;;;3.30;;
34902;SDS011;21114;44.840;0.214;2022-11-15T04:26:22;3.67;;;2.22;;
34902;SDS011;21114;44.840;0.214;2022-11-15T04:29:38;3.30;;;2.65;;
34902;SDS011;21114;44.840;0.214;2022-11-15T04:32:05;4.05;;;3.22;;
34902;SDS011;21114;44.840;0.214;2022-11-15T04:35:19;4.43;;;2.53;;
34902;SDS011;21114;44.840;0.214;2022-11-15T04:37:45;4.80;;;2.97;;
34902;SDS011;21114;44.840;0.214;2022-11-15T04:40:11;4.95;;;2.70;;
34902;SDS011;21114;44.840;0.214;2022-11-15T04:43:26;2.70;;;2.08;;
34902;SDS011;21114;44.840;0.214;2022-11-15T04:45:52;5.75;;;3.33;;
34902;SDS011;21114;44.840;0.214;2022-11-15T04:48:18;5.40;;;3.28;;
34902;SDS011;21114;44.840;0.214;2022-11-15T04:50:44;4.55;;;3.45;;
34902;SDS011;21114;44.840;0.214;2022-11-15T04:54:01;3.30;;;2.38;;
34902;SDS011;21114;44.840;0.214;2022-11-15T04:56:27;2.88;;;2.58;;
34902;SDS011;21114;44.840;0.214;2022-11-15T04:58:53;4.35;;;2.33;;
34902;SDS011;21114;44.840;0.214;2022-11-15T05:01:19;4.47;;;2.08;;
34902;SDS011;21114;44.840;0.214;2022-11-15T05:03:45;2.85;;;2.13;;
34902;SDS011;21114;44.840;0.214;2022-11-15T05:06:59;4.30;;;2.58;;
34902;SDS011;21114;44.840;0.214;2022-11-15T05:09:25;3.95;;;2.78;;
34902;SDS011;21114;44.840;0.214;2022-11-15T05:12:40;3.88;;;2.40;;
34902;SDS011;21114;44.840;0.214;2022-11-15T05:15:06;6.05;;;2.33;;
34902;SDS011;21114;44.840;0.214;2022-11-15T05:17:32;4.07;;;2.13;;
34902;SDS011;21114;44.840;0.214;2022-11-15T05:19:58;4.68;;;2.55;;
34902;SDS011;21114;44.840;0.214;2022-11-15T05:22:24;4.00;;;2.80;;
34902;SDS011;21114;44.840;0.214;2022-11-15T05:24:50;6.30;;;2.53;;
34902;SDS011;21114;44.840;0.214;2022-11-15T05:27:16;4.07;;;2.42;;
34902;SDS011;21114;44.840;0.214;2022-11-15T05:29:42;4.85;;;3.17;;
34902;SDS011;21114;44.840;0.214;2022-11-15T05:32:09;2.95;;;2.30;;
34902;SDS011;21114;44.840;0.214;2022-11-15T05:35:30;4.90;;;3.05;;
34902;SDS011;21114;44.840;0.214;2022-11-15T05:38:46;4.15;;;3.47;;
34902;SDS011;21114;44.840;0.214;2022-11-15T05:42:02;4.65;;;3.00;;
34902;SDS011;21114;44.840;0.214;2022-11-15T05:45:18;3.70;;;2.55;;
34902;SDS011;21114;44.840;0.214;2022-11-15T05:47:44;4.65;;;3.05;;
34902;SDS011;21114;44.840;0.214;2022-11-15T05:50:59;5.50;;;2.70;;
34902;SDS011;21114;44.840;0.214;2022-11-15T05:54:14;4.10;;;2.80;;
34902;SDS011;21114;44.840;0.214;2022-11-15T05:57:30;3.05;;;2.70;;
34902;SDS011;21114;44.840;0.214;2022-11-15T05:59:56;2.75;;;2.22;;
34902;SDS011;21114;44.840;0.214;2022-11-15T06:03:10;3.15;;;2.35;;
34902;SDS011;21114;44.840;0.214;2022-11-15T06:05:39;5.68;;;3.17;;
34902;SDS011;21114;44.840;0.214;2022-11-15T06:08:05;6.55;;;3.90;;
34902;SDS011;21114;44.840;0.214;2022-11-15T06:10:31;7.32;;;3.22;;
34902;SDS011;21114;44.840;0.214;2022-11-15T06:13:46;3.17;;;2.63;;
34902;SDS011;21114;44.840;0.214;2022-11-15T06:16:12;5.05;;;3.15;;
34902;SDS011;21114;44.840;0.214;2022-11-15T06:18:38;4.05;;;3.38;;
34902;SDS011;21114;44.840;0.214;2022-11-15T06:21:05;3.63;;;2.92;;
34902;SDS011;21114;44.840;0.214;2022-11-15T06:24:19;4.32;;;3.78;;
34902;SDS011;21114;44.840;0.214;2022-11-15T06:26:45;5.65;;;2.97;;
34902;SDS011;21114;44.840;0.214;2022-11-15T06:29:12;6.18;;;4.35;;
34902;SDS011;21114;44.840;0.214;2022-11-15T06:31:38;3.67;;;3.38;;
34902;SDS011;21114;44.840;0.214;2022-11-15T06:34:04;6.20;;;4.40;;
34902;SDS011;21114;44.840;0.214;2022-11-15T06:36:30;5.43;;;4.05;;
34902;SDS011;21114;44.840;0.214;2022-11-15T06:38:56;6.75;;;5.00;;
34902;SDS011;21114;44.840;0.214;2022-11-15T06:41:23;7.43;;;5.03;;
34902;SDS011;21114;44.840;0.214;2022-11-15T06:44:37;6.80;;;4.40;;
34902;SDS011;21114;44.840;0.214;2022-11-15T06:47:03;7.38;;;5.90;;
34902;SDS011;21114;44.840;0.214;2022-11-15T06:49:30;20.02;;;17.92;;
34902;SDS011;21114;44.840;0.214;2022-11-15T06:51:56;14.20;;;11.90;;
34902;SDS011;21114;44.840;0.214;2022-11-15T06:54:22;8.10;;;7.22;;
34902;SDS011;21114;44.840;0.214;2022-11-15T06:56:48;6.60;;;5.90;;
34902;SDS011;21114;44.840;0.214;2022-11-15T06:59:15;5.00;;;4.50;;
34902;SDS011;21114;44.840;0.214;2022-11-15T07:01:41;9.07;;;5.03;;
34902;SDS011;21114;44.840;0.214;2022-11-15T07:04:56;8.25;;;5.78;;
34902;SDS011;21114;44.840;0.214;2022-11-15T07:07:22;9.95;;;6.15;;
34902;SDS011;21114;44.840;0.214;2022-11-15T07:09:48;10.27;;;6.05;;
34902;SDS011;21114;44.840;0.214;2022-11-15T07:12:14;7.82;;;4.43;;
34902;SDS011;21114;44.840;0.214;2022-11-15T07:14:40;6.22;;;4.95;;
34902;SDS011;21114;44.840;0.214;2022-11-15T07:17:06;6.35;;;5.65;;
34902;SDS011;21114;44.840;0.214;2022-11-15T07:20:21;7.13;;;5.25;;
34902;SDS011;21114;44.840;0.214;2022-11-15T07:22:47;6.95;;;5.45;;
34902;SDS011;21114;44.840;0.214;2022-11-15T07:25:13;8.43;;;6.47;;
34902;SDS011;21114;44.840;0.214;2022-11-15T07:27:39;10.25;;;7.25;;
34902;SDS011;21114;44.840;0.214;2022-11-15T07:30:05;7.30;;;5.05;;
34902;SDS011;21114;44.840;0.214;2022-11-15T07:32:32;5.78;;;4.40;;
34902;SDS011;21114;44.840;0.214;2022-11-15T07:34:58;7.30;;;5.35;;
34902;SDS011;21114;44.840;0.214;2022-11-15T07:37:24;6.13;;;5.53;;
34902;SDS011;21114;44.840;0.214;2022-11-15T07:39:50;11.50;;;6.43;;
34902;SDS011;21114;44.840;0.214;2022-11-15T07:42:16;7.00;;;6.07;;
34902;SDS011;21114;44.840;0.214;2022-11-15T07:45:10;6.28;;;5.05;;
34902;SDS011;21114;44.840;0.214;2022-11-15T07:47:36;6.70;;;5.20;;
34902;SDS011;21114;44.840;0.214;2022-11-15T07:50:02;7.43;;;5.40;;
34902;SDS011;21114;44.840;0.214;2022-11-15T07:52:28;5.40;;;4.85;;
34902;SDS011;21114;44.840;0.214;2022-11-15T07:54:54;5.43;;;4.90;;
34902;SDS011;21114;44.840;0.214;2022-11-15T07:58:10;8.93;;;6.18;;
34902;SDS011;21114;44.840;0.214;2022-11-15T08:01:25;9.05;;;7.22;;
34902;SDS011;21114;44.840;0.214;2022-11-15T08:03:51;17.40;;;11.18;;
34902;SDS011;21114;44.840;0.214;2022-11-15T08:07:06;8.50;;;6.35;;
34902;SDS011;21114;44.840;0.214;2022-11-15T08:09:32;8.93;;;6.47;;
34902;SDS011;21114;44.840;0.214;2022-11-15T08:11:58;8.07;;;7.05;;
34902;SDS011;21114;44.840;0.214;2022-11-15T08:14:24;9.88;;;5.90;;
34902;SDS011;21114;44.840;0.214;2022-11-15T08:16:50;7.95;;;4.53;;
34902;SDS011;21114;44.840;0.214;2022-11-15T08:19:17;18.70;;;14.18;;
34902;SDS011;21114;44.840;0.214;2022-11-15T08:21:43;6.55;;;5.95;;
34902;SDS011;21114;44.840;0.214;2022-11-15T08:24:09;5.82;;;4.72;;
34902;SDS011;21114;44.840;0.214;2022-11-15T08:26:36;11.95;;;4.50;;
34902;SDS011;21114;44.840;0.214;2022-11-15T08:29:02;6.35;;;4.07;;
34902;SDS011;21114;44.840;0.214;2022-11-15T08:32:16;7.03;;;5.30;;
34902;SDS011;21114;44.840;0.214;2022-11-15T08:34:43;6.43;;;4.35;;
34902;SDS011;21114;44.840;0.214;2022-11-15T08:37:09;6.53;;;5.43;;
34902;SDS011;21114;44.840;0.214;2022-11-15T08:39:35;6.75;;;4.55;;
34902;SDS011;21114;44.840;0.214;2022-11-15T08:42:02;10.43;;;5.10;;
34902;SDS011;21114;44.840;0.214;2022-11-15T08:44:28;5.60;;;3.83;;
34902;SDS011;21114;44.840;0.214;2022-11-15T08:46:55;5.95;;;5.13;;
34902;SDS011;21114;44.840;0.214;2022-11-15T08:49:21;6.95;;;3.88;;
34902;SDS011;21114;44.840;0.214;2022-11-15T08:51:47;5.22;;;4.53;;
34902;SDS011;21114;44.840;0.214;2022-11-15T08:54:13;5.53;;;5.03;;
34902;SDS011;21114;44.840;0.214;2022-11-15T08:56:39;6.88;;;4.40;;
34902;SDS011;21114;44.840;0.214;2022-11-15T08:59:06;4.63;;;4.00;;
34902;SDS011;21114;44.840;0.214;2022-11-15T09:01:32;5.80;;;4.65;;
34902;SDS011;21114;44.840;0.214;2022-11-15T09:04:46;6.25;;;4.85;;
34902;SDS011;21114;44.840;0.214;2022-11-15T09:07:13;4.75;;;4.30;;
34902;SDS011;21114;44.840;0.214;2022-11-15T09:10:28;8.40;;;4.45;;
34902;SDS011;21114;44.840;0.214;2022-11-15T09:12:56;11.30;;;6.78;;
34902;SDS011;21114;44.840;0.214;2022-11-15T09:16:10;7.22;;;4.65;;
34902;SDS011;21114;44.840;0.214;2022-11-15T09:18:37;8.50;;;6.20;;
34902;SDS011;21114;44.840;0.214;2022-11-15T09:21:52;6.40;;;4.50;;
34902;SDS011;21114;44.840;0.214;2022-11-15T09:24:18;6.40;;;4.53;;
34902;SDS011;21114;44.840;0.214;2022-11-15T09:26:44;4.97;;;3.95;;
34902;SDS011;21114;44.840;0.214;2022-11-15T09:29:10;6.15;;;4.22;;
34902;SDS011;21114;44.840;0.214;2022-11-15T09:31:36;5.43;;;3.75;;
34902;SDS011;21114;44.840;0.214;2022-11-15T09:34:02;5.80;;;4.13;;
34902;SDS011;21114;44.840;0.214;2022-11-15T09:36:28;7.93;;;5.75;;
34902;SDS011;21114;44.840;0.214;2022-11-15T09:38:54;4.88;;;3.97;;
34902;SDS011;21114;44.840;0.214;2022-11-15T09:41:25;6.30;;;4.25;;
34902;SDS011;21114;44.840;0.214;2022-11-15T09:44:43;5.63;;;4.25;;
34902;SDS011;21114;44.840;0.214;2022-11-15T09:50:38;7.15;;;5.28;;
34902;SDS011;21114;44.840;0.214;2022-11-15T09:53:57;11.05;;;4.25;;
34902;SDS011;21114;44.840;0.214;2022-11-15T09:59:51;5.07;;;3.83;;
34902;SDS011;21114;44.840;0.214;2022-11-15T10:03:09;5.80;;;4.70;;
34902;SDS011;21114;44.840;0.214;2022-11-15T10:06:25;5.45;;;3.55;;
34902;SDS011;21114;44.840;0.214;2022-11-15T10:09:43;6.10;;;5.30;;
34902;SDS011;21114;44.840;0.214;2022-11-15T10:13:01;8.50;;;5.13;;
34902;SDS011;21114;44.840;0.214;2022-11-15T10:15:27;5.55;;;4.53;;
34902;SDS011;21114;44.840;0.214;2022-11-15T10:20:30;6.88;;;5.45;;
34902;SDS011;21114;44.840;0.214;2022-11-15T10:23:47;5.07;;;4.22;;
34902;SDS011;21114;44.840;0.214;2022-11-15T10:26:14;5.00;;;3.90;;
34902;SDS011;21114;44.840;0.214;2022-11-15T10:28:58;5.25;;;4.63;;
34902;SDS011;21114;44.840;0.214;2022-11-15T10:31:25;8.75;;;5.18;;
34902;SDS011;21114;44.840;0.214;2022-11-15T10:34:40;6.55;;;4.60;;
34902;SDS011;21114;44.840;0.214;2022-11-15T10:37:06;5.60;;;4.78;;
34902;SDS011;21114;44.840;0.214;2022-11-15T10:39:32;6.57;;;4.63;;
34902;SDS011;21114;44.840;0.214;2022-11-15T10:42:14;7.00;;;4.57;;
34902;SDS011;21114;44.840;0.214;2022-11-15T10:45:30;6.57;;;5.00;;
34902;SDS011;21114;44.840;0.214;2022-11-15T10:50:55;5.82;;;3.67;;
34902;SDS011;21114;44.840;0.214;2022-11-15T10:53:24;5.90;;;5.18;;
34902;SDS011;21114;44.840;0.214;2022-11-15T10:55:52;5.80;;;5.18;;
34902;SDS011;21114;44.840;0.214;2022-11-15T10:59:14;6.10;;;3.25;;
34902;SDS011;21114;44.840;0.214;2022-11-15T11:01:48;4.72;;;4.10;;
34902;SDS011;21114;44.840;0.214;2022-11-15T11:05:05;9.65;;;5.90;;
34902;SDS011;21114;44.840;0.214;2022-11-15T11:08:23;4.70;;;3.83;;
34902;SDS011;21114;44.840;0.214;2022-11-15T11:14:33;7.47;;;4.07;;
34902;SDS011;21114;44.840;0.214;2022-11-15T11:17:53;5.03;;;4.53;;
34902;SDS011;21114;44.840;0.214;2022-11-15T11:20:58;4.22;;;3.83;;
34902;SDS011;21114;44.840;0.214;2022-11-15T11:24:08;6.50;;;4.20;;
34902;SDS011;21114;44.840;0.214;2022-11-15T11:30:21;6.32;;;3.60;;
34902;SDS011;21114;44.840;0.214;2022-11-15T11:38:38;4.13;;;3.65;;
34902;SDS011;21114;44.840;0.214;2022-11-15T11:44:52;5.65;;;3.83;;
34902;SDS011;21114;44.840;0.214;2022-11-15T11:47:23;3.53;;;3.23;;
34902;SDS011;21114;44.840;0.214;2022-11-15T11:49:51;3.95;;;3.08;;
34902;SDS011;21114;44.840;0.214;2022-11-15T12:00:41;7.13;;;3.65;;
34902;SDS011;21114;44.840;0.214;2022-11-15T12:03:59;3.47;;;3.15;;
34902;SDS011;21114;44.840;0.214;2022-11-15T12:07:17;3.03;;;2.58;;
34902;SDS011;21114;44.840;0.214;2022-11-15T12:10:33;4.97;;;2.92;;
34902;SDS011;21114;44.840;0.214;2022-11-15T12:13:49;3.50;;;3.03;;
34902;SDS011;21114;44.840;0.214;2022-11-15T12:17:05;2.80;;;2.53;;
34902;SDS011;21114;44.840;0.214;2022-11-15T12:19:31;4.63;;;3.10;;
34902;SDS011;21114;44.840;0.214;2022-11-15T12:22:02;4.03;;;2.95;;
34902;SDS011;21114;44.840;0.214;2022-11-15T12:24:56;3.63;;;2.60;;
34902;SDS011;21114;44.840;0.214;2022-11-15T12:30:56;5.25;;;4.25;;
34902;SDS011;21114;44.840;0.214;2022-11-15T12:39:05;3.15;;;2.78;;
34902;SDS011;21114;44.840;0.214;2022-11-15T12:41:33;4.93;;;3.25;;
34902;SDS011;21114;44.840;0.214;2022-11-15T12:47:26;4.45;;;2.85;;
34902;SDS011;21114;44.840;0.214;2022-11-15T12:49:52;4.22;;;2.92;;
34902;SDS011;21114;44.840;0.214;2022-11-15T12:52:19;4.57;;;3.03;;
34902;SDS011;21114;44.840;0.214;2022-11-15T12:54:49;5.25;;;3.35;;
34902;SDS011;21114;44.840;0.214;2022-11-15T13:02:41;3.72;;;2.60;;
34902;SDS011;21114;44.840;0.214;2022-11-15T13:07:55;2.42;;;2.22;;
34902;SDS011;21114;44.840;0.214;2022-11-15T13:13:03;6.30;;;3.60;;
34902;SDS011;21114;44.840;0.214;2022-11-15T13:15:31;3.50;;;2.40;;
34902;SDS011;21114;44.840;0.214;2022-11-15T13:17:58;2.85;;;2.20;;
34902;SDS011;21114;44.840;0.214;2022-11-15T13:31:18;3.45;;;2.38;;
34902;SDS011;21114;44.840;0.214;2022-11-15T13:33:45;3.65;;;2.58;;
34902;SDS011;21114;44.840;0.214;2022-11-15T13:36:13;3.97;;;2.63;;
34902;SDS011;21114;44.840;0.214;2022-11-15T13:38:40;3.20;;;2.22;;
34902;SDS011;21114;44.840;0.214;2022-11-15T13:41:18;2.78;;;2.17;;
34902;SDS011;21114;44.840;0.214;2022-11-15T13:43:45;2.97;;;2.17;;
34902;SDS011;21114;44.840;0.214;2022-11-15T13:51:42;2.35;;;1.77;;
34902;SDS011;21114;44.840;0.214;2022-11-15T13:56:49;3.47;;;2.10;;
34902;SDS011;21114;44.840;0.214;2022-11-15T14:00:22;3.50;;;1.55;;
34902;SDS011;21114;44.840;0.214;2022-11-15T14:03:41;2.72;;;1.58;;
34902;SDS011;21114;44.840;0.214;2022-11-15T14:06:58;2.55;;;1.65;;
34902;SDS011;21114;44.840;0.214;2022-11-15T14:10:23;1.13;;;0.98;;
34902;SDS011;21114;44.840;0.214;2022-11-15T14:13:39;3.28;;;1.20;;
34902;SDS011;21114;44.840;0.214;2022-11-15T14:16:55;2.50;;;1.42;;
34902;SDS011;21114;44.840;0.214;2022-11-15T14:23:18;3.00;;;1.40;;
34902;SDS011;21114;44.840;0.214;2022-11-15T14:25:52;2.13;;;1.35;;
34902;SDS011;21114;44.840;0.214;2022-11-15T14:31:04;4.38;;;1.30;;
34902;SDS011;21114;44.840;0.214;2022-11-15T14:33:34;2.78;;;0.88;;
34902;SDS011;21114;44.840;0.214;2022-11-15T14:36:49;2.38;;;1.10;;
34902;SDS011;21114;44.840;0.214;2022-11-15T14:39:15;3.92;;;1.25;;
34902;SDS011;21114;44.840;0.214;2022-11-15T14:41:41;4.70;;;1.52;;
34902;SDS011;21114;44.840;0.214;2022-11-15T14:44:09;1.80;;;1.33;;
34902;SDS011;21114;44.840;0.214;2022-11-15T14:47:07;1.42;;;1.00;;
34902;SDS011;21114;44.840;0.214;2022-11-15T14:49:33;4.35;;;2.13;;
34902;SDS011;21114;44.840;0.214;2022-11-15T14:51:59;1.73;;;1.15;;
34902;SDS011;21114;44.840;0.214;2022-11-15T14:54:25;1.67;;;0.93;;
34902;SDS011;21114;44.840;0.214;2022-11-15T14:56:51;1.50;;;0.80;;
34902;SDS011;21114;44.840;0.214;2022-11-15T14:59:17;4.90;;;1.52;;
34902;SDS011;21114;44.840;0.214;2022-11-15T15:01:43;2.08;;;1.27;;
34902;SDS011;21114;44.840;0.214;2022-11-15T15:04:10;1.85;;;1.25;;
34902;SDS011;21114;44.840;0.214;2022-11-15T15:07:27;3.25;;;2.28;;
34902;SDS011;21114;44.840;0.214;2022-11-15T15:09:53;2.92;;;1.42;;
34902;SDS011;21114;44.840;0.214;2022-11-15T15:12:20;3.78;;;2.72;;
34902;SDS011;21114;44.840;0.214;2022-11-15T15:15:01;6.63;;;3.20;;
34902;SDS011;21114;44.840;0.214;2022-11-15T15:17:27;3.45;;;3.08;;
34902;SDS011;21114;44.840;0.214;2022-11-15T15:19:53;5.30;;;3.72;;
34902;SDS011;21114;44.840;0.214;2022-11-15T15:22:19;4.10;;;2.50;;
34902;SDS011;21114;44.840;0.214;2022-11-15T15:25:33;7.05;;;3.72;;
34902;SDS011;21114;44.840;0.214;2022-11-15T15:28:48;1.10;;;0.80;;
34902;SDS011;21114;44.840;0.214;2022-11-15T15:32:03;1.73;;;1.35;;
34902;SDS011;21114;44.840;0.214;2022-11-15T15:34:29;1.75;;;1.10;;
34902;SDS011;21114;44.840;0.214;2022-11-15T15:39:49;1.10;;;0.60;;
34902;SDS011;21114;44.840;0.214;2022-11-15T15:42:15;1.67;;;0.63;;
34902;SDS011;21114;44.840;0.214;2022-11-15T15:44:41;0.90;;;0.60;;
34902;SDS011;21114;44.840;0.214;2022-11-15T15:47:11;1.15;;;0.65;;
34902;SDS011;21114;44.840;0.214;2022-11-15T15:49:38;1.00;;;0.80;;
34902;SDS011;21114;44.840;0.214;2022-11-15T15:52:04;1.83;;;0.47;;
34902;SDS011;21114;44.840;0.214;2022-11-15T15:54:30;2.53;;;1.20;;
34902;SDS011;21114;44.840;0.214;2022-11-15T15:56:56;0.85;;;0.57;;
34902;SDS011;21114;44.840;0.214;2022-11-15T15:59:22;1.20;;;0.47;;
34902;SDS011;21114;44.840;0.214;2022-11-15T16:01:48;1.50;;;0.65;;
34902;SDS011;21114;44.840;0.214;2022-11-15T16:04:14;1.05;;;0.60;;
34902;SDS011;21114;44.840;0.214;2022-11-15T16:06:41;0.85;;;0.40;;
34902;SDS011;21114;44.840;0.214;2022-11-15T16:09:12;6.85;;;1.33;;
34902;SDS011;21114;44.840;0.214;2022-11-15T16:11:39;1.65;;;1.20;;
34902;SDS011;21114;44.840;0.214;2022-11-15T16:14:05;1.88;;;0.68;;
34902;SDS011;21114;44.840;0.214;2022-11-15T16:16:31;1.27;;;1.15;;
34902;SDS011;21114;44.840;0.214;2022-11-15T16:18:57;1.98;;;0.35;;
34902;SDS011;21114;44.840;0.214;2022-11-15T16:21:25;3.60;;;0.60;;
34902;SDS011;21114;44.840;0.214;2022-11-15T16:23:51;2.38;;;0.40;;
34902;SDS011;21114;44.840;0.214;2022-11-15T16:28:57;18.02;;;0.98;;
34902;SDS011;21114;44.840;0.214;2022-11-15T16:31:23;3.38;;;1.23;;
34902;SDS011;21114;44.840;0.214;2022-11-15T16:33:49;2.17;;;1.20;;
34902;SDS011;21114;44.840;0.214;2022-11-15T16:36:23;2.40;;;0.93;;
34902;SDS011;21114;44.840;0.214;2022-11-15T16:38:50;2.10;;;1.30;;
34902;SDS011;21114;44.840;0.214;2022-11-15T16:41:16;2.38;;;1.75;;
34902;SDS011;21114;44.840;0.214;2022-11-15T16:43:44;2.60;;;1.63;;
34902;SDS011;21114;44.840;0.214;2022-11-15T16:48:57;6.85;;;4.20;;
34902;SDS011;21114;44.840;0.214;2022-11-15T16:51:23;6.13;;;3.80;;
34902;SDS011;21114;44.840;0.214;2022-11-15T16:53:50;4.57;;;1.95;;
34902;SDS011;21114;44.840;0.214;2022-11-15T16:58:53;2.45;;;0.90;;
34902;SDS011;21114;44.840;0.214;2022-11-15T17:01:23;1.88;;;0.98;;
34902;SDS011;21114;44.840;0.214;2022-11-15T17:03:49;5.03;;;1.70;;
34902;SDS011;21114;44.840;0.214;2022-11-15T17:06:16;3.00;;;1.48;;
34902;SDS011;21114;44.840;0.214;2022-11-15T17:08:43;2.92;;;0.80;;
34902;SDS011;21114;44.840;0.214;2022-11-15T17:11:58;2.03;;;1.70;;
34902;SDS011;21114;44.840;0.214;2022-11-15T17:14:24;2.35;;;1.50;;
34902;SDS011;21114;44.840;0.214;2022-11-15T17:16:50;3.67;;;1.88;;
34902;SDS011;21114;44.840;0.214;2022-11-15T17:19:17;4.00;;;1.88;;
34902;SDS011;21114;44.840;0.214;2022-11-15T17:21:44;1.58;;;0.90;;
34902;SDS011;21114;44.840;0.214;2022-11-15T17:24:11;2.83;;;1.63;;
34902;SDS011;21114;44.840;0.214;2022-11-15T17:26:37;2.90;;;1.40;;
34902;SDS011;21114;44.840;0.214;2022-11-15T17:29:03;2.20;;;1.13;;
34902;SDS011;21114;44.840;0.214;2022-11-15T17:31:32;5.20;;;1.52;;
34902;SDS011;21114;44.840;0.214;2022-11-15T17:34:00;4.50;;;1.80;;
34902;SDS011;21114;44.840;0.214;2022-11-15T17:36:26;8.02;;;3.75;;
34902;SDS011;21114;44.840;0.214;2022-11-15T17:38:53;4.88;;;1.00;;
34902;SDS011;21114;44.840;0.214;2022-11-15T17:41:19;2.75;;;1.27;;
34902;SDS011;21114;44.840;0.214;2022-11-15T17:43:45;4.18;;;1.73;;
34902;SDS011;21114;44.840;0.214;2022-11-15T17:46:13;3.58;;;1.27;;
34902;SDS011;21114;44.840;0.214;2022-11-15T17:48:39;3.70;;;1.83;;
34902;SDS011;21114;44.840;0.214;2022-11-15T17:51:06;4.32;;;1.65;;
34902;SDS011;21114;44.840;0.214;2022-11-15T17:53:33;6.90;;;5.28;;
34902;SDS011;21114;44.840;0.214;2022-11-15T17:56:02;5.70;;;3.85;;
34902;SDS011;21114;44.840;0.214;2022-11-15T17:58:50;5.68;;;3.17;;
34902;SDS011;21114;44.840;0.214;2022-11-15T18:03:52;6.63;;;3.35;;